createdAt,value
2019-03-29T16:10:14.874Z,977.52
2019-03-29T16:11:17.344Z,977.52
2019-03-29T16:12:14.951Z,977.51
2019-03-29T16:13:14.804Z,977.50
2019-03-29T16:14:15.023Z,977.47
2019-03-29T16:15:14.817Z,977.50
2019-03-29T16:16:14.856Z,977.47
2019-03-29T16:17:14.883Z,977.48
2019-03-29T16:18:14.865Z,977.46
2019-03-29T16:19:14.817Z,977.54
2019-03-29T16:20:15.444Z,977.41
2019-03-29T16:21:14.880Z,977.48
2019-03-29T16:22:15.027Z,977.44
2019-03-29T16:23:15.051Z,977.41
2019-03-29T16:24:16.081Z,977.52
2019-03-29T16:25:15.054Z,977.45
2019-03-29T16:26:14.940Z,977.46
2019-03-29T16:27:14.986Z,977.49
2019-03-29T16:28:14.955Z,977.43
2019-03-29T16:29:14.980Z,977.46
2019-03-29T16:30:14.926Z,977.49
2019-03-29T16:31:14.871Z,977.41
2019-03-29T16:32:15.041Z,977.45
2019-03-29T16:33:15.973Z,977.48
2019-03-29T16:34:14.970Z,977.48
2019-03-29T16:35:15.145Z,977.34
2019-03-29T16:36:15.043Z,977.41
2019-03-29T16:37:16.568Z,977.43
2019-03-29T16:38:15.195Z,977.44
2019-03-29T16:39:15.056Z,977.40
2019-03-29T16:40:17.434Z,977.47
2019-03-29T16:41:15.012Z,977.43
2019-03-29T16:42:14.915Z,977.41
2019-03-29T16:43:15.027Z,977.42
2019-03-29T16:44:15.379Z,977.36
2019-03-29T16:45:15.092Z,977.36
2019-03-29T16:46:15.092Z,977.39
2019-03-29T16:47:15.003Z,977.39
2019-03-29T16:48:15.344Z,977.36
2019-03-29T16:49:15.118Z,977.41
2019-03-29T16:50:15.010Z,977.38
2019-03-29T16:51:14.983Z,977.35
2019-03-29T16:52:15.074Z,977.42
2019-03-29T16:53:15.072Z,977.42
2019-03-29T16:54:15.071Z,977.42
2019-03-29T16:55:15.148Z,977.34
2019-03-29T16:56:15.217Z,977.40
2019-03-29T16:57:14.981Z,977.45
2019-03-29T16:58:15.297Z,977.43
2019-03-29T16:59:14.896Z,977.37
2019-03-29T17:00:15.340Z,977.40
2019-03-29T17:01:14.969Z,977.42
2019-03-29T17:02:15.125Z,977.39
2019-03-29T17:03:15.178Z,977.42
2019-03-29T17:04:15.041Z,977.39
2019-03-29T17:05:15.321Z,977.46
2019-03-29T17:06:15.276Z,977.43
2019-03-29T17:07:15.091Z,977.40
2019-03-29T17:08:15.113Z,977.36
2019-03-29T17:09:15.157Z,977.45
2019-03-29T17:10:15.128Z,977.40
2019-03-29T17:11:15.141Z,977.39
2019-03-29T17:12:15.054Z,977.48
2019-03-29T17:13:14.987Z,977.39
2019-03-29T17:14:15.040Z,977.42
2019-03-29T17:15:15.476Z,977.41
2019-03-29T17:16:14.921Z,977.41
2019-03-29T17:17:15.222Z,977.40
2019-03-29T17:18:28.569Z,977.43
2019-03-29T17:19:15.304Z,977.43
2019-03-29T17:20:14.916Z,977.45
2019-03-29T17:21:15.111Z,977.47
2019-03-29T17:22:15.047Z,977.41
2019-03-29T17:23:15.387Z,977.44
2019-03-29T17:24:14.966Z,977.46
2019-03-29T17:25:14.965Z,977.45
2019-03-29T17:26:15.110Z,977.50
2019-03-29T17:27:15.017Z,977.46
2019-03-29T17:28:15.332Z,977.52
2019-03-29T17:29:14.991Z,977.47
2019-03-29T17:30:15.011Z,977.42
2019-03-29T17:31:15.080Z,977.45
2019-03-29T17:32:14.971Z,977.46
2019-03-29T17:33:15.204Z,977.43
2019-03-29T17:34:15.067Z,977.47
2019-03-29T17:35:15.083Z,977.41
2019-03-29T17:36:15.196Z,977.42
2019-03-29T17:37:15.090Z,977.40
2019-03-29T17:38:15.048Z,977.42
2019-03-29T17:39:15.095Z,977.32
2019-03-29T17:40:15.021Z,977.36
2019-03-29T17:41:15.070Z,977.39
2019-03-29T17:42:15.077Z,977.40
2019-03-29T17:43:15.344Z,977.43
2019-03-29T17:44:15.143Z,977.40
2019-03-29T17:45:15.051Z,977.41
2019-03-29T17:46:16.286Z,977.36
2019-03-29T17:47:15.134Z,977.43
2019-03-29T17:48:15.069Z,977.42
2019-03-29T17:49:15.203Z,977.45
2019-03-29T17:50:15.218Z,977.48
2019-03-29T17:51:14.999Z,977.38
2019-03-29T17:52:15.182Z,977.45
2019-03-29T17:53:15.121Z,977.40
2019-03-29T17:54:14.996Z,977.41
2019-03-29T17:55:15.078Z,977.36
2019-03-29T17:56:15.021Z,977.44
2019-03-29T17:57:15.265Z,977.41
2019-03-29T17:58:15.108Z,977.42
2019-03-29T17:59:15.034Z,977.39
2019-03-29T18:00:15.084Z,977.37
2019-03-29T18:01:17.746Z,977.37
2019-03-29T18:02:15.113Z,977.31
2019-03-29T18:03:15.121Z,977.42
2019-03-29T18:04:15.120Z,977.46
2019-03-29T18:05:15.420Z,977.34
2019-03-29T18:06:15.120Z,977.37
2019-03-29T18:07:15.322Z,977.42
2019-03-29T18:08:15.129Z,977.47
2019-03-29T18:09:15.215Z,977.39
2019-03-29T18:10:14.988Z,977.43
2019-03-29T18:11:15.216Z,977.45
2019-03-29T18:12:15.409Z,977.45
2019-03-29T18:13:15.188Z,977.47
2019-03-29T18:14:15.095Z,977.56
2019-03-29T18:15:15.047Z,977.55
2019-03-29T18:16:29.580Z,977.56
2019-03-29T18:17:15.290Z,977.57
2019-03-29T18:18:15.232Z,977.46
2019-03-29T18:19:15.000Z,977.55
2019-03-29T18:20:15.102Z,977.51
2019-03-29T18:21:14.994Z,977.58
2019-03-29T18:22:15.204Z,977.60
2019-03-29T18:23:15.293Z,977.56
2019-03-29T18:24:15.130Z,977.52
2019-03-29T18:25:15.179Z,977.62
2019-03-29T18:26:15.035Z,977.57
2019-03-29T18:27:15.254Z,977.60
2019-03-29T18:28:15.070Z,977.53
2019-03-29T18:29:15.198Z,977.62
2019-03-29T18:30:14.986Z,977.65
2019-03-29T18:31:15.095Z,977.57
2019-03-29T18:32:15.176Z,977.52
2019-03-29T18:33:15.183Z,977.70
2019-03-29T18:34:16.134Z,977.64
2019-03-29T18:35:15.001Z,977.65
2019-03-29T18:36:15.262Z,977.62
2019-03-29T18:37:15.471Z,977.64
2019-03-29T18:38:15.209Z,977.66
2019-03-29T18:39:15.150Z,977.62
2019-03-29T18:40:15.201Z,977.67
2019-03-29T18:41:15.177Z,977.66
2019-03-29T18:42:15.207Z,977.62
2019-03-29T18:43:15.205Z,977.64
2019-03-29T18:44:15.221Z,977.67
2019-03-29T18:45:15.182Z,977.60
2019-03-29T18:46:15.304Z,977.60
2019-03-29T18:47:15.331Z,977.69
2019-03-29T18:48:15.128Z,977.72
2019-03-29T18:49:15.326Z,977.73
2019-03-29T18:50:15.339Z,977.61
2019-03-29T18:51:15.204Z,977.68
2019-03-29T18:52:15.343Z,977.68
2019-03-29T18:53:15.267Z,977.72
2019-03-29T18:54:15.365Z,977.72
2019-03-29T18:55:15.222Z,977.74
2019-03-29T18:56:15.422Z,977.68
2019-03-29T18:57:15.331Z,977.74
2019-03-29T18:58:15.655Z,977.70
2019-03-29T18:59:15.401Z,977.74
2019-03-29T19:00:15.378Z,977.72
2019-03-29T19:01:15.470Z,977.75
2019-03-29T19:02:15.680Z,977.72
2019-03-29T19:03:18.040Z,977.76
2019-03-29T19:04:15.518Z,977.78
2019-03-29T19:05:15.544Z,977.70
2019-03-29T19:06:15.326Z,977.81
2019-03-29T19:07:15.669Z,977.72
2019-03-29T19:08:15.415Z,977.79
2019-03-29T19:09:15.466Z,977.79
2019-03-29T19:10:15.522Z,977.76
2019-03-29T19:11:15.367Z,977.78
2019-03-29T19:12:15.364Z,977.82
2019-03-29T19:13:15.554Z,977.69
2019-03-29T19:14:15.434Z,977.84
2019-03-29T19:15:15.390Z,977.82
2019-03-29T19:16:15.487Z,977.81
2019-03-29T19:17:15.611Z,977.88
2019-03-29T19:18:16.605Z,977.85
2019-03-29T19:19:15.471Z,977.81
2019-03-29T19:20:26.563Z,977.89
2019-03-29T19:21:15.439Z,977.82
2019-03-29T19:22:15.732Z,977.79
2019-03-29T19:23:15.475Z,977.83
2019-03-29T19:24:15.469Z,977.87
2019-03-29T19:25:15.511Z,977.83
2019-03-29T19:26:15.454Z,977.83
2019-03-29T19:27:15.565Z,977.84
2019-03-29T19:28:15.633Z,977.79
2019-03-29T19:29:15.665Z,977.86
2019-03-29T19:30:15.494Z,977.86
2019-03-29T19:31:15.576Z,977.80
2019-03-29T19:32:15.441Z,977.88
2019-03-29T19:33:15.690Z,977.88
2019-03-29T19:34:15.534Z,977.91
2019-03-29T19:35:15.536Z,977.86
2019-03-29T19:36:15.470Z,977.85
2019-03-29T19:37:18.222Z,977.87
2019-03-29T19:38:15.589Z,977.84
2019-03-29T19:39:15.651Z,977.86
2019-03-29T19:40:15.786Z,977.78
2019-03-29T19:41:15.454Z,977.80
2019-03-29T19:42:16.834Z,977.83
2019-03-29T19:43:15.452Z,977.79
2019-03-29T19:44:15.474Z,977.76
2019-03-29T19:45:15.442Z,977.74
2019-03-29T19:46:15.652Z,977.78
2019-03-29T19:47:15.532Z,977.84
2019-03-29T19:48:15.460Z,977.78
2019-03-29T19:49:15.533Z,977.70
2019-03-29T19:50:15.682Z,977.75
2019-03-29T19:51:15.646Z,977.86
2019-03-29T19:52:15.613Z,977.73
2019-03-29T19:53:15.595Z,977.82
2019-03-29T19:54:15.431Z,977.74
2019-03-29T19:55:15.466Z,977.75
2019-03-29T19:56:15.770Z,977.82
2019-03-29T19:57:15.568Z,977.68
2019-03-29T19:58:15.504Z,977.71
2019-03-29T19:59:15.507Z,977.81
2019-03-29T20:00:15.495Z,977.71
2019-03-29T20:01:15.706Z,977.71
2019-03-29T20:02:15.648Z,977.72
2019-03-29T20:03:15.649Z,977.77
2019-03-29T20:04:15.508Z,977.70
2019-03-29T20:05:15.738Z,977.67
2019-03-29T20:06:15.638Z,977.71
2019-03-29T20:07:15.478Z,977.67
2019-03-29T20:08:15.755Z,977.71
2019-03-29T20:09:15.553Z,977.70
2019-03-29T20:10:15.481Z,977.64
2019-03-29T20:11:15.999Z,977.66
2019-03-29T20:12:15.679Z,977.66
2019-03-29T20:13:15.876Z,977.65
2019-03-29T20:14:15.604Z,977.64
2019-03-29T20:15:15.722Z,977.61
2019-03-29T20:16:15.498Z,977.62
2019-03-29T20:17:27.004Z,977.66
2019-03-29T20:18:15.508Z,977.68
2019-03-29T20:19:15.514Z,977.66
2019-03-29T20:20:15.530Z,977.61
2019-03-29T20:21:15.477Z,977.70
2019-03-29T20:22:16.290Z,977.57
2019-03-29T20:23:15.674Z,977.66
2019-03-29T20:24:15.606Z,977.68
2019-03-29T20:25:15.497Z,977.61
2019-03-29T20:26:15.750Z,977.65
2019-03-29T20:27:15.540Z,977.62
2019-03-29T20:28:15.639Z,977.71
2019-03-29T20:29:15.482Z,977.74
2019-03-29T20:30:17.812Z,977.65
2019-03-29T20:31:15.469Z,977.69
2019-03-29T20:32:15.671Z,977.74
2019-03-29T20:33:15.648Z,977.78
2019-03-29T20:34:15.611Z,977.74
2019-03-29T20:35:15.727Z,977.74
2019-03-29T20:36:22.773Z,977.68
2019-03-29T20:37:15.715Z,977.67
2019-03-29T20:38:15.525Z,977.68
2019-03-29T20:39:15.593Z,977.77
2019-03-29T20:40:15.556Z,977.77
2019-03-29T20:41:15.604Z,977.76
2019-03-29T20:42:15.624Z,977.76
2019-03-29T20:43:15.549Z,977.75
2019-03-29T20:44:15.580Z,977.74
2019-03-29T20:45:15.838Z,977.76
2019-03-29T20:46:15.765Z,977.72
2019-03-29T20:47:15.957Z,977.74
2019-03-29T20:48:15.759Z,977.72
2019-03-29T20:49:15.865Z,977.78
2019-03-29T20:50:15.607Z,977.79
2019-03-29T20:51:15.576Z,977.71
2019-03-29T20:52:16.090Z,977.83
2019-03-29T20:53:15.590Z,977.75
2019-03-29T20:54:15.792Z,977.79
2019-03-29T20:55:15.708Z,977.85
2019-03-29T20:56:16.162Z,977.86
2019-03-29T20:57:15.665Z,977.84
2019-03-29T20:58:15.729Z,977.80
2019-03-29T20:59:16.673Z,977.88
2019-03-29T21:00:15.738Z,977.87
2019-03-29T21:01:15.595Z,977.89
2019-03-29T21:02:15.622Z,977.84
2019-03-29T21:03:15.683Z,977.77
2019-03-29T21:04:15.873Z,977.85
2019-03-29T21:05:16.015Z,977.89
2019-03-29T21:06:15.644Z,977.89
2019-03-29T21:07:15.677Z,977.81
2019-03-29T21:08:15.877Z,977.84
2019-03-29T21:09:15.956Z,977.87
2019-03-29T21:10:15.621Z,977.90
2019-03-29T21:11:16.598Z,977.93
2019-03-29T21:12:15.730Z,977.89
2019-03-29T21:13:15.650Z,977.90
2019-03-29T21:14:15.652Z,977.92
2019-03-29T21:15:15.639Z,977.95
2019-03-29T21:16:15.628Z,977.99
2019-03-29T21:17:15.684Z,977.97
2019-03-29T21:18:17.427Z,978.00
2019-03-29T21:19:15.975Z,977.97
2019-03-29T21:20:15.744Z,977.93
2019-03-29T21:21:15.657Z,977.92
2019-03-29T21:22:15.753Z,977.96
2019-03-29T21:23:15.732Z,977.92
2019-03-29T21:24:15.693Z,977.91
2019-03-29T21:25:15.715Z,977.91
2019-03-29T21:26:16.027Z,977.91
2019-03-29T21:27:15.763Z,977.89
2019-03-29T21:28:15.808Z,977.90
2019-03-29T21:29:18.214Z,977.92
2019-03-29T21:30:15.980Z,977.92
2019-03-29T21:31:15.734Z,977.95
2019-03-29T21:32:16.310Z,977.94
2019-03-29T21:33:15.931Z,977.95
2019-03-29T21:34:15.648Z,977.90
2019-03-29T21:35:15.708Z,977.86
2019-03-29T21:36:18.108Z,977.91
2019-03-29T21:37:15.702Z,977.90
2019-03-29T21:38:15.792Z,977.87
2019-03-29T21:39:15.829Z,977.89
2019-03-29T21:40:15.688Z,977.90
2019-03-29T21:41:15.848Z,977.94
2019-03-29T21:42:15.858Z,977.88
2019-03-29T21:43:15.795Z,977.84
2019-03-29T21:44:16.838Z,977.96
2019-03-29T21:45:28.107Z,977.93
2019-03-29T21:46:15.754Z,977.92
2019-03-29T21:47:17.691Z,977.94
2019-03-29T21:48:27.253Z,977.90
2019-03-29T21:49:15.882Z,977.88
2019-03-29T21:50:15.662Z,977.90
2019-03-29T21:51:18.208Z,977.90
2019-03-29T21:52:15.959Z,977.95
2019-03-29T21:53:15.726Z,977.89
2019-03-29T21:54:15.676Z,977.99
2019-03-29T21:55:15.889Z,977.93
2019-03-29T21:56:16.027Z,977.93
2019-03-29T21:57:15.868Z,977.91
2019-03-29T21:58:16.417Z,977.90
2019-03-29T21:59:15.759Z,977.97
2019-03-29T22:00:15.720Z,977.90
